Time;durP1;ratioP1;P1;durP2;ratioP2;P2;SDS_P1;SDS_P2;PMS_P1;PMS_P2;Temp;Humidity;BMP_temperature;BMP_pressure;BME280_temperature;BME280_humidity;BME280_pressure;Samples;Min_cycle;Max_cycle;Signal;HPM_P1;HPM_P2
2023/05/22 00:01:26;;;;;;;16.40;12.17;;;23.20;53.10;;;;;;5013140;28;20994;-82
2023/05/22 00:03:53;;;;;;;15.87;12.00;;;23.10;53.10;;;;;;5018999;28;20445;-83
2023/05/22 00:06:23;;;;;;;16.20;10.63;;;23.10;53.30;;;;;;5007488;28;20580;-84
2023/05/22 00:08:50;;;;;;;18.60;11.80;;;23.10;53.20;;;;;;5017365;28;20531;-83
2023/05/22 00:11:17;;;;;;;14.57;12.00;;;23.00;53.40;;;;;;5035638;28;21187;-82
2023/05/22 00:13:44;;;;;;;16.40;11.27;;;23.00;53.50;;;;;;5013342;28;20453;-83
2023/05/22 00:16:10;;;;;;;14.67;12.43;;;23.00;53.60;;;;;;5019055;28;21384;-82
2023/05/22 00:18:41;;;;;;;18.17;12.63;;;23.00;53.70;;;;;;5036462;28;20456;-84
2023/05/22 00:21:08;;;;;;;14.03;11.80;;;23.00;53.90;;;;;;5012785;28;20472;-83
2023/05/22 00:23:36;;;;;;;16.00;12.80;;;23.00;53.90;;;;;;5046585;28;20484;-83
2023/05/22 00:26:03;;;;;;;15.67;12.03;;;22.90;53.30;;;;;;5044347;28;20461;-84
2023/05/22 00:28:30;;;;;;;16.27;11.20;;;22.90;53.70;;;;;;5012151;28;20445;-85
2023/05/22 00:30:57;;;;;;;14.67;11.63;;;22.80;53.60;;;;;;5034974;28;21506;-83
2023/05/22 00:33:24;;;;;;;14.07;12.07;;;22.50;55.10;;;;;;5010975;28;20588;-83
2023/05/22 00:35:52;;;;;;;15.83;11.60;;;22.40;55.20;;;;;;5008376;28;20544;-84
2023/05/22 00:38:31;;;;;;;17.47;12.37;;;22.30;55.20;;;;;;5020757;28;20432;-85
2023/05/22 00:40:59;;;;;;;15.73;12.20;;;22.20;55.70;;;;;;5021074;28;21057;-83
2023/05/22 00:43:26;;;;;;;18.50;12.40;;;22.30;55.60;;;;;;5026319;28;20472;-85
2023/05/22 00:45:54;;;;;;;15.60;12.93;;;22.10;55.80;;;;;;5044266;28;20441;-83
2023/05/22 00:48:21;;;;;;;18.00;12.30;;;21.70;56.60;;;;;;5011397;28;20503;-84
2023/05/22 00:50:49;;;;;;;14.03;11.80;;;21.70;56.70;;;;;;5037712;28;20453;-83
2023/05/22 00:53:16;;;;;;;17.27;12.47;;;21.80;56.10;;;;;;5037771;28;20502;-82
2023/05/22 00:55:44;;;;;;;14.57;12.13;;;22.00;56.10;;;;;;5008776;28;20463;-85
2023/05/22 00:58:16;;;;;;;15.20;11.87;;;22.00;56.40;;;;;;5016824;28;20446;-84
2023/05/22 01:00:44;;;;;;;14.10;11.00;;;22.10;56.00;;;;;;5027463;28;20473;-85
2023/05/22 01:03:11;;;;;;;14.50;12.87;;;22.10;55.80;;;;;;5044896;28;20570;-85
2023/05/22 01:05:39;;;;;;;16.70;11.67;;;22.20;55.80;;;;;;5023090;28;21086;-84
2023/05/22 01:08:07;;;;;;;15.57;13.07;;;22.30;55.60;;;;;;5020513;28;20508;-83
2023/05/22 01:10:36;;;;;;;15.83;12.03;;;22.30;55.20;;;;;;5028128;28;20449;-84
2023/05/22 01:13:14;;;;;;;13.07;11.33;;;22.30;55.20;;;;;;5018168;28;20472;-83
2023/05/22 01:15:55;;;;;;;15.40;11.90;;;22.30;55.00;;;;;;5026619;28;20918;-84
2023/05/22 01:18:31;;;;;;;14.20;11.27;;;22.30;55.00;;;;;;5021323;28;20445;-84
2023/05/22 01:21:05;;;;;;;15.40;11.90;;;22.30;54.80;;;;;;5005325;28;20465;-84
2023/05/22 01:24:10;;;;;;;16.67;11.73;;;22.30;54.80;;;;;;5009778;28;20536;-84
2023/05/22 01:26:58;;;;;;;17.10;11.67;;;22.20;54.80;;;;;;5023010;28;20491;-84
2023/05/22 01:29:40;;;;;;;16.87;12.00;;;22.10;55.00;;;;;;5053477;28;20449;-83
2023/05/22 01:32:09;;;;;;;17.87;12.20;;;22.10;55.00;;;;;;5025699;28;20484;-84
2023/05/22 01:34:40;;;;;;;16.03;12.60;;;22.10;54.90;;;;;;5008084;28;20879;-84
2023/05/22 01:37:08;;;;;;;13.77;10.87;;;22.10;54.90;;;;;;5035180;28;20948;-84
2023/05/22 01:39:36;;;;;;;15.23;11.00;;;22.10;54.90;;;;;;5054608;28;20456;-84
2023/05/22 01:42:04;;;;;;;17.80;12.50;;;22.00;54.80;;;;;;5025159;28;20485;-83
2023/05/22 01:44:31;;;;;;;16.63;12.37;;;22.00;55.30;;;;;;5017646;28;20442;-83
2023/05/22 01:47:03;;;;;;;16.40;11.70;;;22.00;55.40;;;;;;5018472;28;21097;-85
2023/05/22 01:49:32;;;;;;;15.43;12.67;;;22.00;55.40;;;;;;5010725;28;20593;-83
2023/05/22 01:52:08;;;;;;;17.20;13.23;;;22.00;55.50;;;;;;5034365;28;20518;-84
2023/05/22 01:54:41;;;;;;;15.53;10.70;;;22.00;55.60;;;;;;5027487;28;20965;-83
2023/05/22 01:57:16;;;;;;;14.33;11.70;;;21.90;55.60;;;;;;5032475;28;20456;-84
2023/05/22 01:59:47;;;;;;;18.17;12.80;;;21.90;55.70;;;;;;5028712;28;20478;-85
2023/05/22 02:02:17;;;;;;;15.43;12.17;;;21.80;55.80;;;;;;5031902;28;20496;-84
2023/05/22 02:04:51;;;;;;;20.27;12.77;;;21.80;56.00;;;;;;5009445;28;20457;-84
2023/05/22 02:07:23;;;;;;;18.73;12.83;;;21.80;56.00;;;;;;5051013;28;20508;-82
2023/05/22 02:09:51;;;;;;;16.50;12.10;;;21.70;55.90;;;;;;5011069;28;20983;-83
2023/05/22 02:12:19;;;;;;;17.27;12.60;;;21.70;56.00;;;;;;5017893;28;20975;-83
2023/05/22 02:14:47;;;;;;;16.70;13.00;;;21.60;56.20;;;;;;5033068;28;20540;-83
2023/05/22 02:17:14;;;;;;;17.87;12.80;;;21.60;56.00;;;;;;5009634;28;20458;-84
2023/05/22 02:19:42;;;;;;;16.67;11.67;;;21.50;56.10;;;;;;5027289;28;20536;-85
2023/05/22 02:22:12;;;;;;;15.07;11.80;;;21.60;56.30;;;;;;5049591;28;20556;-83
2023/05/22 02:24:41;;;;;;;15.47;11.77;;;21.50;56.30;;;;;;5020442;28;20457;-84
2023/05/22 02:27:09;;;;;;;16.33;12.23;;;21.40;56.20;;;;;;5028853;28;20835;-82
2023/05/22 02:29:36;;;;;;;14.93;11.80;;;21.40;56.40;;;;;;5015788;28;20433;-84
2023/05/22 02:32:04;;;;;;;15.07;11.53;;;21.40;56.30;;;;;;5007465;28;20537;-83
2023/05/22 02:34:31;;;;;;;14.73;11.20;;;21.40;55.80;;;;;;5021027;28;20540;-83
2023/05/22 02:36:58;;;;;;;16.37;12.10;;;21.30;55.50;;;;;;5018346;28;20444;-84
2023/05/22 02:39:27;;;;;;;15.70;11.90;;;21.30;55.70;;;;;;5043631;28;20514;-82
2023/05/22 02:41:54;;;;;;;17.13;13.00;;;21.30;56.00;;;;;;5019493;28;20556;-82
2023/05/22 02:44:21;;;;;;;17.00;12.17;;;21.30;56.20;;;;;;5009094;28;20569;-84
2023/05/22 02:46:48;;;;;;;13.20;10.37;;;21.30;56.10;;;;;;5025816;28;21177;-82
2023/05/22 02:49:15;;;;;;;18.47;12.37;;;21.30;55.40;;;;;;5007729;28;20458;-82
2023/05/22 02:51:46;;;;;;;16.30;12.00;;;21.20;55.80;;;;;;5026973;28;20549;-83
2023/05/22 02:54:14;;;;;;;17.20;12.40;;;21.10;56.30;;;;;;5024331;28;20820;-84
2023/05/22 02:56:43;;;;;;;14.23;11.63;;;21.10;56.30;;;;;;5023725;28;20997;-84
2023/05/22 02:59:10;;;;;;;17.40;12.43;;;21.10;57.40;;;;;;5022596;28;20481;-82
2023/05/22 03:01:38;;;;;;;16.73;13.07;;;21.10;56.70;;;;;;5003009;28;21014;-85
2023/05/22 03:04:05;;;;;;;19.07;12.60;;;21.00;56.60;;;;;;5005265;28;20495;-83
2023/05/22 03:06:33;;;;;;;18.30;13.00;;;20.10;58.70;;;;;;5038285;28;20454;-84
2023/05/22 03:09:02;;;;;;;19.17;13.17;;;19.90;59.40;;;;;;5014892;28;20476;-84
2023/05/22 03:11:29;;;;;;;17.30;12.17;;;19.80;60.10;;;;;;5016945;28;20465;-84
2023/05/22 03:13:58;;;;;;;18.27;13.80;;;20.10;59.20;;;;;;5008117;28;21446;-83
2023/05/22 03:16:25;;;;;;;19.00;12.67;;;20.40;58.50;;;;;;5033925;28;20480;-82
2023/05/22 03:19:07;;;;;;;19.30;13.03;;;20.50;57.60;;;;;;5019893;28;20456;-83
2023/05/22 03:21:36;;;;;;;15.53;12.17;;;20.60;57.20;;;;;;5030344;28;20460;-81
2023/05/22 03:24:03;;;;;;;18.77;13.47;;;20.70;57.10;;;;;;5019895;28;20969;-84
2023/05/22 03:26:30;;;;;;;14.93;11.87;;;20.70;56.70;;;;;;5020293;28;20452;-82
2023/05/22 03:28:59;;;;;;;18.47;12.00;;;20.80;56.40;;;;;;5016577;28;20452;-85
2023/05/22 03:31:30;;;;;;;14.20;11.43;;;20.80;56.80;;;;;;5020872;28;20446;-83
2023/05/22 03:34:08;;;;;;;15.43;11.90;;;20.80;56.50;;;;;;4998705;28;20553;-82
2023/05/22 03:36:37;;;;;;;17.40;11.87;;;20.70;56.50;;;;;;5038801;28;20449;-84
2023/05/22 03:39:05;;;;;;;17.23;11.63;;;20.70;56.40;;;;;;5021493;28;21023;-83
2023/05/22 03:41:37;;;;;;;17.07;13.20;;;20.70;56.30;;;;;;5033078;28;20476;-85
2023/05/22 03:44:06;;;;;;;19.07;12.57;;;20.70;56.30;;;;;;4999792;28;21229;-84
2023/05/22 03:46:34;;;;;;;18.10;12.57;;;20.70;56.00;;;;;;5027829;28;20507;-83
2023/05/22 03:49:01;;;;;;;16.70;12.13;;;20.80;56.00;;;;;;5004955;28;20453;-82
2023/05/22 03:51:28;;;;;;;19.73;12.10;;;20.70;56.00;;;;;;5031588;28;20442;-84
2023/05/22 03:53:55;;;;;;;16.13;12.57;;;20.80;56.20;;;;;;5010216;28;20464;-83
2023/05/22 03:56:22;;;;;;;17.53;12.47;;;20.70;56.20;;;;;;4995871;28;20452;-82
2023/05/22 03:58:49;;;;;;;17.33;11.83;;;20.70;56.50;;;;;;5026038;28;20452;-83
2023/05/22 04:01:18;;;;;;;14.87;12.17;;;20.70;56.60;;;;;;5026713;28;21833;-82
2023/05/22 04:03:45;;;;;;;17.87;12.07;;;20.70;56.50;;;;;;5033959;28;20461;-82
2023/05/22 04:06:13;;;;;;;16.80;11.90;;;20.60;56.70;;;;;;5014373;28;20441;-83
2023/05/22 04:08:40;;;;;;;18.07;13.37;;;20.60;56.60;;;;;;5032640;28;21154;-83
2023/05/22 04:11:07;;;;;;;18.33;12.77;;;20.70;56.90;;;;;;5022726;28;20462;-83
2023/05/22 04:13:34;;;;;;;19.70;11.67;;;20.70;57.00;;;;;;5022178;28;20484;-84
2023/05/22 04:16:03;;;;;;;17.10;13.43;;;20.70;57.00;;;;;;5031138;28;20448;-83
2023/05/22 04:18:31;;;;;;;17.20;13.10;;;20.70;57.30;;;;;;5024248;28;20453;-82
2023/05/22 04:20:58;;;;;;;19.73;13.00;;;20.70;57.40;;;;;;5013278;28;20462;-81
2023/05/22 04:23:25;;;;;;;15.30;11.90;;;20.70;57.40;;;;;;4997003;28;20509;-85
2023/05/22 04:25:52;;;;;;;15.60;12.03;;;20.80;57.20;;;;;;5020771;28;20442;-83
2023/05/22 04:28:21;;;;;;;14.83;11.50;;;20.80;57.30;;;;;;5038440;28;20454;-81
2023/05/22 04:30:48;;;;;;;18.67;12.30;;;20.80;57.70;;;;;;5022444;28;20539;-81
2023/05/22 04:33:15;;;;;;;14.83;11.67;;;20.80;58.10;;;;;;5022203;28;20469;-84
2023/05/22 04:35:44;;;;;;;15.93;13.47;;;20.80;58.10;;;;;;5018712;28;20456;-81
2023/05/22 04:38:10;;;;;;;17.10;13.03;;;20.80;58.30;;;;;;5015945;28;20453;-83
2023/05/22 04:40:38;;;;;;;16.27;13.07;;;20.80;58.30;;;;;;5036605;28;20436;-83
2023/05/22 04:43:05;;;;;;;16.43;13.47;;;20.80;58.20;;;;;;5019830;28;20473;-83
2023/05/22 04:45:32;;;;;;;17.73;13.20;;;20.90;58.20;;;;;;5006940;28;20448;-83
2023/05/22 04:48:01;;;;;;;16.23;12.83;;;20.90;57.90;;;;;;5026510;28;20457;-82
2023/05/22 04:50:31;;;;;;;15.43;11.77;;;20.90;58.80;;;;;;5021199;28;20955;-83
2023/05/22 04:53:02;;;;;;;16.47;11.90;;;20.90;58.00;;;;;;5037212;28;20872;-83
2023/05/22 04:55:32;;;;;;;17.67;12.83;;;20.90;58.20;;;;;;5046942;28;20444;-83
2023/05/22 04:57:59;;;;;;;18.90;12.00;;;21.00;58.30;;;;;;5038753;28;20451;-81
2023/05/22 05:00:27;;;;;;;15.43;13.03;;;21.10;58.40;;;;;;5010196;28;20453;-82
2023/05/22 05:02:56;;;;;;;15.30;11.43;;;21.20;58.30;;;;;;5027746;28;20501;-83
2023/05/22 05:05:23;;;;;;;14.93;11.87;;;21.00;58.40;;;;;;5038813;28;20488;-82
2023/05/22 05:07:52;;;;;;;21.73;12.27;;;20.80;59.10;;;;;;5022962;28;20449;-80
2023/05/22 05:10:20;;;;;;;17.27;13.50;;;20.80;58.90;;;;;;5025908;28;20535;-82
2023/05/22 05:12:47;;;;;;;17.27;13.13;;;20.90;58.90;;;;;;5025440;28;20462;-82
2023/05/22 05:15:14;;;;;;;19.07;14.00;;;21.00;58.80;;;;;;5023781;28;20467;-83
2023/05/22 05:17:41;;;;;;;21.73;12.73;;;20.90;58.80;;;;;;5021173;28;20515;-82
2023/05/22 05:20:09;;;;;;;17.50;12.90;;;20.70;59.50;;;;;;5008743;28;20560;-81
2023/05/22 05:22:36;;;;;;;17.97;13.00;;;20.60;59.80;;;;;;5052451;28;20485;-82
2023/05/22 05:25:06;;;;;;;17.20;13.10;;;20.50;60.10;;;;;;5010014;28;20829;-83
2023/05/22 05:27:34;;;;;;;17.03;13.97;;;20.40;60.60;;;;;;5012398;28;20455;-82
2023/05/22 05:30:02;;;;;;;20.37;14.37;;;20.40;60.30;;;;;;5038658;28;20455;-81
2023/05/22 05:32:46;;;;;;;20.63;14.20;;;20.70;59.90;;;;;;5008250;28;20855;-82
2023/05/22 05:35:25;;;;;;;18.90;13.77;;;21.00;59.60;;;;;;5017392;28;20472;-82
2023/05/22 05:38:03;;;;;;;20.53;13.70;;;21.20;59.10;;;;;;5018143;28;20974;-82
2023/05/22 05:40:32;;;;;;;17.07;13.70;;;21.40;58.80;;;;;;5027327;28;20467;-82
2023/05/22 05:43:01;;;;;;;21.77;13.97;;;20.90;59.00;;;;;;5021330;28;20987;-82
2023/05/22 05:45:29;;;;;;;17.37;13.67;;;21.10;59.10;;;;;;5030900;28;20480;-81
2023/05/22 05:47:57;;;;;;;15.70;12.90;;;21.40;59.60;;;;;;5036148;28;21005;-81
2023/05/22 05:50:24;;;;;;;18.33;13.60;;;21.60;58.70;;;;;;4999453;28;20571;-83
2023/05/22 05:52:51;;;;;;;16.90;12.70;;;21.50;58.90;;;;;;5008941;28;20908;-81
2023/05/22 05:55:20;;;;;;;18.67;13.27;;;21.70;58.80;;;;;;5032986;28;20460;-82
2023/05/22 05:57:48;;;;;;;18.73;13.37;;;21.60;58.20;;;;;;5024956;28;20452;-84
2023/05/22 06:00:23;;;;;;;16.83;13.27;;;21.70;58.90;;;;;;5030140;28;20453;-80
2023/05/22 06:02:52;;;;;;;16.47;12.80;;;21.60;58.60;;;;;;5033202;28;21110;-83
2023/05/22 06:05:38;;;;;;;17.00;13.47;;;21.90;58.20;;;;;;5031749;28;20531;-82
2023/05/22 06:08:23;;;;;;;17.87;13.53;;;22.20;57.50;;;;;;5018632;28;20569;-81
2023/05/22 06:10:51;;;;;;;21.73;14.17;;;22.40;56.80;;;;;;5002525;28;20989;-82
2023/05/22 06:13:35;;;;;;;21.73;13.43;;;22.40;56.90;;;;;;5042954;28;20545;-83
2023/05/22 06:16:04;;;;;;;15.70;13.37;;;22.50;56.70;;;;;;5005267;28;20456;-82
2023/05/22 06:18:31;;;;;;;14.83;12.00;;;22.40;57.00;;;;;;5023134;28;20997;-83
2023/05/22 06:20:58;;;;;;;20.60;13.67;;;22.50;56.80;;;;;;5035163;28;21017;-82
2023/05/22 06:23:25;;;;;;;17.73;13.50;;;22.60;56.50;;;;;;4999402;28;20481;-83
2023/05/22 06:25:54;;;;;;;17.57;12.47;;;22.60;56.70;;;;;;5012395;28;20522;-83
2023/05/22 06:28:21;;;;;;;15.23;12.80;;;22.60;57.10;;;;;;5025623;28;21070;-83
2023/05/22 06:30:48;;;;;;;18.90;12.33;;;22.50;56.10;;;;;;5019008;28;20449;-84
2023/05/22 06:33:19;;;;;;;13.87;11.57;;;22.50;56.60;;;;;;5013406;28;20549;-82
2023/05/22 06:35:46;;;;;;;16.07;12.10;;;22.60;56.40;;;;;;5032262;28;20438;-81
2023/05/22 06:38:13;;;;;;;15.30;12.20;;;22.70;56.20;;;;;;5026505;28;20463;-83
2023/05/22 06:40:42;;;;;;;16.00;12.10;;;22.90;56.40;;;;;;5019550;28;20498;-82
2023/05/22 06:43:20;;;;;;;14.20;11.73;;;23.50;56.10;;;;;;5024044;28;20473;-83
2023/05/22 06:45:55;;;;;;;16.70;11.53;;;24.00;56.00;;;;;;5034435;28;20942;-82
2023/05/22 06:48:23;;;;;;;17.33;12.57;;;24.30;54.70;;;;;;5030633;28;20449;-83
2023/05/22 06:51:05;;;;;;;13.10;11.30;;;24.50;54.40;;;;;;5024369;28;20458;-80
2023/05/22 06:53:32;;;;;;;14.83;11.30;;;24.40;54.00;;;;;;5026220;28;20461;-84
2023/05/22 06:56:00;;;;;;;15.10;12.07;;;24.50;54.20;;;;;;5017597;28;20477;-83
2023/05/22 06:58:37;;;;;;;16.20;11.80;;;24.60;54.10;;;;;;5021121;28;20887;-84
2023/05/22 07:01:06;;;;;;;16.80;10.70;;;24.70;54.20;;;;;;5031105;28;20492;-81
2023/05/22 07:03:40;;;;;;;13.07;11.37;;;24.90;54.00;;;;;;5035628;28;20920;-82
2023/05/22 07:06:27;;;;;;;14.00;11.40;;;24.90;54.20;;;;;;5024728;28;20441;-81
2023/05/22 07:08:54;;;;;;;13.53;10.30;;;24.70;54.30;;;;;;5016178;28;20457;-81
2023/05/22 07:11:22;;;;;;;12.87;10.53;;;24.90;52.20;;;;;;5008109;28;20452;-82
2023/05/22 07:13:49;;;;;;;17.73;9.90;;;24.90;52.50;;;;;;5017598;28;20454;-83
2023/05/22 07:16:16;;;;;;;15.70;11.20;;;25.00;51.70;;;;;;5029827;28;20794;-83
2023/05/22 07:18:45;;;;;;;12.53;9.80;;;25.20;52.90;;;;;;5042853;28;20898;-81
2023/05/22 07:21:12;;;;;;;15.73;10.37;;;25.50;51.10;;;;;;5023913;28;20484;-83
2023/05/22 07:23:39;;;;;;;15.13;9.53;;;25.90;49.70;;;;;;5018731;28;20868;-84
2023/05/22 07:26:07;;;;;;;14.20;10.10;;;26.00;47.40;;;;;;5038477;28;21024;-83
2023/05/22 07:28:38;;;;;;;11.57;10.03;;;26.00;47.50;;;;;;5016990;28;20450;-85
2023/05/22 07:31:12;;;;;;;11.00;9.80;;;25.90;46.80;;;;;;5024069;28;21076;-83
2023/05/22 07:33:39;;;;;;;10.37;8.90;;;26.20;48.10;;;;;;5008009;28;20529;-83
2023/05/22 07:36:08;;;;;;;11.53;9.73;;;26.30;47.50;;;;;;5030396;28;20453;-85
2023/05/22 07:38:37;;;;;;;14.13;10.10;;;26.30;47.70;;;;;;5017917;28;20459;-84
2023/05/22 07:41:05;;;;;;;11.60;9.50;;;26.20;46.30;;;;;;5040428;28;20445;-84
2023/05/22 07:43:33;;;;;;;12.70;9.40;;;26.30;46.50;;;;;;5021674;28;20476;-83
2023/05/22 07:46:01;;;;;;;11.37;8.80;;;26.30;47.90;;;;;;5016647;28;20918;-82
2023/05/22 07:48:33;;;;;;;11.10;9.50;;;26.50;46.10;;;;;;5008843;28;20459;-83
2023/05/22 07:51:02;;;;;;;10.27;9.10;;;26.70;47.10;;;;;;5035327;28;20483;-82
2023/05/22 07:53:31;;;;;;;11.80;10.13;;;26.80;45.70;;;;;;5013301;28;20539;-83
2023/05/22 07:56:00;;;;;;;12.57;9.90;;;27.00;45.40;;;;;;5024108;28;21122;-83
2023/05/22 07:58:27;;;;;;;11.03;9.90;;;27.20;45.90;;;;;;5018666;28;20515;-82
2023/05/22 08:00:55;;;;;;;13.53;9.10;;;27.50;45.10;;;;;;5008979;28;20457;-82
2023/05/22 08:03:22;;;;;;;10.63;9.63;;;27.50;44.10;;;;;;5022654;28;20465;-82
2023/05/22 08:05:49;;;;;;;10.80;9.50;;;27.50;44.90;;;;;;5010415;28;20476;-82
2023/05/22 08:08:16;;;;;;;10.07;9.03;;;27.30;44.80;;;;;;5049619;28;20448;-83
2023/05/22 08:10:45;;;;;;;15.43;9.10;;;27.10;45.10;;;;;;5052224;28;20476;-82
2023/05/22 08:13:12;;;;;;;11.90;9.77;;;27.10;45.60;;;;;;5028257;28;20465;-82
2023/05/22 08:15:39;;;;;;;10.63;9.50;;;27.10;44.60;;;;;;5013420;28;20494;-84
2023/05/22 08:18:06;;;;;;;9.90;8.77;;;27.20;44.80;;;;;;5055474;28;20436;-83
2023/05/22 08:20:33;;;;;;;9.43;8.40;;;27.30;44.90;;;;;;5029641;28;20451;-84
2023/05/22 08:22:59;;;;;;;11.50;9.30;;;27.60;45.80;;;;;;5016837;28;20543;-83
2023/05/22 08:25:26;;;;;;;10.87;9.23;;;27.60;44.90;;;;;;5028971;28;22248;-83
2023/05/22 08:27:55;;;;;;;11.80;8.90;;;27.60;43.00;;;;;;5014033;28;20459;-84
2023/05/22 08:30:22;;;;;;;11.83;9.43;;;27.10;44.40;;;;;;5026042;28;20444;-82
2023/05/22 08:32:48;;;;;;;11.40;9.47;;;27.30;45.10;;;;;;5037868;28;20477;-83
2023/05/22 08:35:16;;;;;;;11.70;9.07;;;27.50;44.90;;;;;;5014847;28;20993;-82
2023/05/22 08:37:43;;;;;;;11.37;9.03;;;27.60;45.00;;;;;;5038493;28;20559;-83
2023/05/22 08:40:12;;;;;;;12.53;9.60;;;27.50;45.00;;;;;;5038270;28;20962;-84
2023/05/22 08:42:39;;;;;;;11.20;9.50;;;27.50;44.90;;;;;;5037891;28;20468;-81
2023/05/22 08:45:08;;;;;;;12.50;9.50;;;27.40;44.00;;;;;;5006257;28;20444;-81
2023/05/22 08:47:36;;;;;;;11.97;9.30;;;27.60;44.30;;;;;;5055412;28;20456;-83
2023/05/22 08:50:04;;;;;;;13.27;9.10;;;27.70;44.30;;;;;;5023475;28;20449;-83
2023/05/22 08:52:37;;;;;;;9.77;8.77;;;27.70;44.80;;;;;;5004304;28;20472;-83
2023/05/22 08:55:05;;;;;;;12.57;9.03;;;27.90;44.90;;;;;;5022640;28;21064;-84
2023/05/22 08:57:32;;;;;;;11.73;9.90;;;27.90;43.90;;;;;;5033826;28;20453;-83
2023/05/22 08:59:59;;;;;;;11.20;9.30;;;28.10;44.70;;;;;;5037883;28;20457;-83
2023/05/22 09:02:28;;;;;;;10.20;9.10;;;28.30;44.00;;;;;;5032498;28;21137;-82
2023/05/22 09:04:56;;;;;;;10.37;9.37;;;28.40;44.10;;;;;;5057383;28;20507;-83
2023/05/22 09:07:23;;;;;;;10.43;9.43;;;28.40;43.50;;;;;;5030921;28;20465;-83
2023/05/22 09:09:50;;;;;;;15.33;10.37;;;28.50;44.80;;;;;;5045326;28;20445;-83
2023/05/22 09:12:17;;;;;;;13.50;8.87;;;28.50;43.20;;;;;;5025172;28;20484;-82
2023/05/22 09:14:45;;;;;;;9.30;8.40;;;28.70;43.90;;;;;;5008282;28;20448;-82
2023/05/22 09:17:15;;;;;;;13.60;9.80;;;28.80;42.30;;;;;;5025812;28;20465;-82
2023/05/22 09:19:45;;;;;;;9.93;8.93;;;28.80;43.40;;;;;;5033940;28;20453;-81
2023/05/22 09:22:13;;;;;;;15.07;10.67;;;28.80;42.60;;;;;;5017059;28;20466;-82
2023/05/22 09:24:42;;;;;;;9.70;8.70;;;28.90;43.90;;;;;;5036822;28;20480;-83
2023/05/22 09:27:10;;;;;;;13.47;10.57;;;29.00;42.30;;;;;;5022369;28;20457;-85
2023/05/22 09:29:50;;;;;;;11.50;9.83;;;29.20;43.20;;;;;;5011108;28;20468;-83
2023/05/22 09:32:17;;;;;;;9.70;8.77;;;29.30;41.20;;;;;;5021256;28;20469;-83
2023/05/22 09:34:46;;;;;;;10.50;9.00;;;29.00;41.90;;;;;;5001883;28;20444;-83
2023/05/22 09:37:13;;;;;;;10.30;9.30;;;29.00;42.20;;;;;;5024741;28;20456;-83
2023/05/22 09:39:40;;;;;;;10.17;8.50;;;29.10;42.20;;;;;;5011672;28;20449;-82
2023/05/22 09:42:10;;;;;;;12.30;9.57;;;29.10;40.60;;;;;;5007213;28;20466;-83
2023/05/22 09:44:37;;;;;;;12.60;9.23;;;28.90;41.40;;;;;;5031186;28;20543;-82
2023/05/22 09:47:06;;;;;;;10.30;9.30;;;28.90;41.80;;;;;;5021966;28;20440;-83
2023/05/22 09:49:36;;;;;;;10.33;9.20;;;29.00;41.00;;;;;;5027332;28;20450;-82
2023/05/22 09:52:08;;;;;;;9.77;8.73;;;29.10;41.50;;;;;;5025784;28;20473;-83
2023/05/22 09:54:35;;;;;;;9.40;8.50;;;29.00;40.80;;;;;;5025405;28;20444;-84
2023/05/22 09:57:06;;;;;;;11.10;8.90;;;28.70;41.40;;;;;;5015474;28;20485;-82
2023/05/22 09:59:38;;;;;;;10.50;7.97;;;28.50;42.80;;;;;;5023634;28;20479;-82
2023/05/22 10:02:07;;;;;;;10.50;9.43;;;28.60;41.60;;;;;;5052933;28;20479;-82
2023/05/22 10:04:36;;;;;;;11.23;8.97;;;28.70;41.40;;;;;;5016577;28;20470;-83
2023/05/22 10:07:05;;;;;;;11.23;10.00;;;28.70;41.20;;;;;;5034468;28;20479;-83
2023/05/22 10:09:36;;;;;;;10.50;9.40;;;28.80;42.00;;;;;;5016337;28;20440;-83
2023/05/22 10:12:06;;;;;;;10.50;9.43;;;29.00;41.10;;;;;;5010288;28;20813;-83
2023/05/22 10:14:35;;;;;;;14.63;8.97;;;29.20;40.90;;;;;;5003649;28;20472;-84
2023/05/22 10:17:05;;;;;;;11.70;9.13;;;29.40;40.80;;;;;;5035068;28;20450;-82
2023/05/22 10:19:33;;;;;;;11.43;10.07;;;29.60;40.00;;;;;;4999613;28;20449;-83
2023/05/22 10:22:01;;;;;;;10.43;9.43;;;29.40;40.00;;;;;;5026486;28;20524;-82
2023/05/22 10:24:29;;;;;;;9.53;8.53;;;29.40;40.20;;;;;;5041422;28;20883;-83
2023/05/22 10:26:57;;;;;;;11.00;9.27;;;29.70;40.50;;;;;;5016038;28;20484;-83
2023/05/22 10:29:33;;;;;;;10.33;8.80;;;29.80;39.00;;;;;;5023669;28;20467;-81
2023/05/22 10:32:09;;;;;;;9.80;8.60;;;30.20;40.40;;;;;;5005549;28;20456;-83
2023/05/22 10:35:01;;;;;;;14.70;9.80;;;30.50;38.10;;;;;;5042453;28;20547;-83
2023/05/22 10:37:42;;;;;;;11.60;9.40;;;30.70;38.90;;;;;;5015878;28;20540;-83
2023/05/22 10:40:13;;;;;;;10.60;9.50;;;31.00;39.00;;;;;;5035951;28;20956;-81
2023/05/22 10:42:40;;;;;;;9.90;9.00;;;31.10;38.00;;;;;;5034215;28;20481;-83
2023/05/22 10:45:08;;;;;;;11.90;9.20;;;31.10;37.90;;;;;;5025421;28;20473;-83
2023/05/22 10:47:35;;;;;;;10.37;9.00;;;30.70;38.30;;;;;;5031356;28;20452;-83
2023/05/22 10:50:04;;;;;;;10.10;9.10;;;30.80;39.30;;;;;;5017682;28;20442;-82
2023/05/22 10:52:31;;;;;;;12.67;9.70;;;31.00;38.90;;;;;;5032223;28;20471;-83
2023/05/22 10:55:00;;;;;;;10.00;9.00;;;31.20;38.50;;;;;;5026902;28;20472;-83
2023/05/22 10:57:33;;;;;;;11.03;9.53;;;31.50;38.90;;;;;;5018022;28;20460;-83
2023/05/22 11:00:09;;;;;;;10.40;9.30;;;31.40;37.60;;;;;;5020382;28;20487;-85
2023/05/22 11:02:42;;;;;;;10.73;9.20;;;30.80;37.70;;;;;;5007109;28;20491;-84
2023/05/22 11:05:34;;;;;;;10.80;9.23;;;30.70;39.00;;;;;;5017118;28;20471;-84
2023/05/22 11:08:45;;;;;;;10.93;9.83;;;31.00;40.00;;;;;;5010263;28;20665;-83
2023/05/22 11:11:13;;;;;;;11.93;9.67;;;31.30;38.10;;;;;;5003280;28;21203;-81
2023/05/22 11:13:42;;;;;;;10.37;9.37;;;31.40;37.30;;;;;;5036544;28;20480;-83
2023/05/22 11:16:12;;;;;;;10.60;9.07;;;31.50;37.10;;;;;;5052237;28;20475;-83
2023/05/22 11:18:39;;;;;;;17.70;9.20;;;31.80;36.80;;;;;;5014040;28;20529;-83
2023/05/22 11:21:12;;;;;;;10.60;9.50;;;31.90;36.80;;;;;;5037433;28;20459;-83
2023/05/22 11:23:39;;;;;;;12.17;9.50;;;31.90;37.10;;;;;;5031772;28;20453;-82
2023/05/22 11:26:21;;;;;;;12.73;8.90;;;32.10;37.20;;;;;;5022706;28;20457;-83
2023/05/22 11:28:53;;;;;;;10.50;9.07;;;32.30;36.50;;;;;;5017403;28;20446;-83
2023/05/22 11:31:22;;;;;;;11.90;9.80;;;32.50;36.60;;;;;;5036152;28;20465;-84
2023/05/22 11:33:50;;;;;;;9.80;8.90;;;32.40;36.40;;;;;;5008415;28;21185;-84
2023/05/22 11:36:17;;;;;;;11.80;9.60;;;32.40;36.70;;;;;;5030799;28;20460;-83
2023/05/22 11:38:45;;;;;;;12.53;10.03;;;32.30;36.70;;;;;;5017780;28;20854;-84
2023/05/22 11:41:12;;;;;;;10.97;9.87;;;32.30;36.30;;;;;;5043423;28;20456;-81
2023/05/22 11:43:42;;;;;;;10.00;9.03;;;32.30;36.80;;;;;;5024477;28;20472;-83
2023/05/22 11:46:11;;;;;;;10.70;9.57;;;32.30;35.80;;;;;;5032336;28;20451;-83
2023/05/22 11:48:41;;;;;;;10.20;8.87;;;32.50;36.30;;;;;;5010852;28;20450;-83
2023/05/22 11:51:09;;;;;;;12.20;9.80;;;32.70;35.40;;;;;;5046014;28;20445;-82
2023/05/22 11:53:37;;;;;;;10.17;8.40;;;33.00;36.70;;;;;;5021760;28;20476;-84
2023/05/22 11:56:05;;;;;;;9.57;8.67;;;33.10;35.50;;;;;;5023442;28;20512;-83
2023/05/22 11:58:32;;;;;;;10.63;9.20;;;33.20;34.60;;;;;;5019784;28;21122;-83
2023/05/22 12:01:00;;;;;;;9.50;8.50;;;33.00;34.60;;;;;;5040121;28;20453;-84
2023/05/22 12:03:29;;;;;;;9.47;8.60;;;33.10;34.80;;;;;;5023424;28;20476;-83
2023/05/22 12:05:57;;;;;;;11.30;9.03;;;33.10;34.30;;;;;;5039328;28;20489;-83
2023/05/22 12:08:25;;;;;;;10.97;9.30;;;32.70;34.70;;;;;;5041943;28;20818;-83
2023/05/22 12:10:53;;;;;;;9.60;8.60;;;32.20;33.50;;;;;;5032590;28;21079;-84
2023/05/22 12:13:25;;;;;;;10.97;9.07;;;32.00;35.20;;;;;;5036923;28;20487;-84
2023/05/22 12:15:54;;;;;;;11.10;8.87;;;32.20;36.30;;;;;;5022708;28;20437;-82
2023/05/22 12:18:21;;;;;;;10.00;8.60;;;32.40;34.80;;;;;;5010859;28;20997;-85
2023/05/22 12:20:53;;;;;;;9.77;8.83;;;32.60;35.60;;;;;;5024769;28;20440;-84
2023/05/22 12:23:24;;;;;;;9.77;8.37;;;32.80;34.50;;;;;;5047395;28;20512;-83
2023/05/22 12:25:59;;;;;;;10.00;9.00;;;32.80;32.60;;;;;;5026281;28;20529;-84
2023/05/22 12:28:26;;;;;;;9.13;8.23;;;32.50;32.90;;;;;;5018868;28;20433;-83
2023/05/22 12:30:54;;;;;;;13.77;7.90;;;32.60;34.10;;;;;;5010349;28;20448;-83
2023/05/22 12:33:26;;;;;;;9.70;8.80;;;32.50;33.60;;;;;;5038938;28;20554;-83
2023/05/22 12:35:57;;;;;;;12.33;8.97;;;32.90;34.10;;;;;;5039551;28;20551;-82
2023/05/22 12:38:26;;;;;;;10.90;9.00;;;33.10;31.70;;;;;;5023467;28;20449;-84
2023/05/22 12:40:53;;;;;;;10.30;9.00;;;33.10;33.20;;;;;;5014383;28;20453;-84
2023/05/22 12:43:21;;;;;;;10.33;7.77;;;32.90;33.00;;;;;;5014779;28;20461;-82